Terminal Aerodrome Forecast
Issued by NWS Cleveland, OH

Home | Current Version | Previous Version | Graphics & Text | Print | Product List | Glossary On
Versions: 1 2 3 4 5 6 7 8 9 10 11 12 13 14
397
FTUS41 KCLE 211723
TAFCAK
TAF
KCAK 211723Z 2118/2218 28007KT P6SM FEW035 SCT070
     FM220000 35004KT P6SM SCT200
     FM220900 14004KT P6SM BKN080
     FM221400 20006KT P6SM BKN050=

USA.gov is the U.S. government's official web portal to all federal, state and local government web resources and services.